ヤクーツク の空港の天気 - METARとTAF

ヤクーツク空港 ( UEEE / YKS ) - ロシア ヤクーツク
飛行場実況気象(Metar)
観測時間02/02 01:30 YAKT (02/01 16:30 UTC)
風向・風速北北東 2m/s
視程3200m
天気現象弱い雪 もや
なし
気温-37℃
湿度66%
気圧1015hPa
METARUEEE 011630Z 02002MPS 3200 -SN BR NSC M37/M41 Q1015 R23L/490150 NOSIG RMK QFE752
過去の天気等 Google飛行場航空写真 Wunderground天気予報

過去48時間のMETAR

飛行場予報(TAF)
発表時間: 2/01 23:00 YAKT (2/01 14:00 UTC)
予報対象時間: 2日0時 YAKT ~ 3日6時 YAKT
風向・風速北 3m/s
視程2100m
天気現象弱い雪 もや
なし
2日0時 YAKT ~ 2日3時 YAKT に一時的に
視程300m
天気現象雪 霧
全天を覆う雲 鉛直視程 90m
2日3時 YAKT から
風向・風速不定 1m/s
視程300m
天気現象雪 霧
全天を覆う雲 鉛直視程 60m
2日3時 YAKT ~ 2日15時 YAKT に一時的に
視程700m
天気現象雪 霧
全天を覆う雲 鉛直視程 120m
TAF COR UEEE 011400Z 0115/0221 35003MPS 2100 -SN BR NSC TXM38/0205Z TNM43/0201Z
TEMPO 0115/0118 0300 SN FG VV003
FM011800 VRB01MPS 0300 SN FG VV002
TEMPO 0118/0206 0700 SN FG VV004